createdAt,value
2022-10-02T00:01:54.687Z,0.37
2022-10-02T00:04:25.962Z,0.40
2022-10-02T00:06:55.676Z,0.40
2022-10-02T00:09:30.486Z,0.50
2022-10-02T00:11:59.232Z,0.40
2022-10-02T00:14:29.332Z,0.60
2022-10-02T00:16:58.188Z,0.57
2022-10-02T00:19:25.574Z,0.60
2022-10-02T00:25:49.779Z,0.40
2022-10-02T00:28:39.660Z,0.43
2022-10-02T00:31:12.479Z,0.40
2022-10-02T00:33:58.974Z,0.30
2022-10-02T00:36:54.908Z,0.50
2022-10-02T00:39:43.695Z,0.40
2022-10-02T00:42:42.178Z,0.30
2022-10-02T00:45:17.964Z,0.37
2022-10-02T00:48:04.669Z,0.40
2022-10-02T00:50:54.932Z,0.30
2022-10-02T00:53:58.599Z,0.30
2022-10-02T00:56:35.159Z,0.20
2022-10-02T00:59:28.847Z,0.30
2022-10-02T01:02:06.110Z,0.30
2022-10-02T01:04:37.709Z,0.30
2022-10-02T01:07:10.448Z,0.23
2022-10-02T01:09:38.181Z,0.30
2022-10-02T01:12:05.315Z,0.20
2022-10-02T01:14:37.160Z,0.40
2022-10-02T01:17:04.384Z,0.37
2022-10-02T01:19:37.774Z,0.20
2022-10-02T01:22:13.097Z,0.30
2022-10-02T01:24:56.057Z,0.37
2022-10-02T01:27:23.733Z,0.30
2022-10-02T01:30:02.505Z,0.33
2022-10-02T01:32:31.948Z,0.33
2022-10-02T01:35:00.723Z,0.30
2022-10-02T01:37:53.991Z,0.30
2022-10-02T01:40:45.925Z,0.30
2022-10-02T01:43:21.255Z,0.20
2022-10-02T01:45:47.870Z,0.30
2022-10-02T01:48:23.578Z,0.30
2022-10-02T01:50:59.199Z,0.40
2022-10-02T01:53:47.432Z,0.30
2022-10-02T01:56:36.308Z,0.40
2022-10-02T01:59:21.773Z,0.30
2022-10-02T02:02:19.084Z,0.40
2022-10-02T02:04:56.971Z,0.40
2022-10-02T02:07:30.322Z,0.30
2022-10-02T02:10:11.186Z,0.57
2022-10-02T02:12:41.923Z,0.40
2022-10-02T02:15:32.900Z,0.30
2022-10-02T02:18:17.375Z,0.40
2022-10-02T02:20:47.643Z,0.30
2022-10-02T02:23:20.718Z,0.40
2022-10-02T02:25:50.999Z,0.30
2022-10-02T02:28:19.826Z,0.30
2022-10-02T02:30:49.527Z,0.33
2022-10-02T02:33:28.205Z,0.23
2022-10-02T02:35:58.237Z,0.40
2022-10-02T02:38:31.788Z,0.37
2022-10-02T02:41:04.901Z,0.27
2022-10-02T02:43:38.021Z,0.20
2022-10-02T02:46:10.586Z,0.27
2022-10-02T02:48:42.293Z,0.20
2022-10-02T02:51:15.574Z,0.30
2022-10-02T02:53:51.669Z,0.40
2022-10-02T02:56:19.627Z,0.30
2022-10-02T02:59:01.062Z,0.20
2022-10-02T03:01:27.834Z,0.40
2022-10-02T03:03:54.526Z,0.50
2022-10-02T03:06:21.735Z,0.20
2022-10-02T03:08:51.169Z,0.30
2022-10-02T03:11:21.434Z,0.40
2022-10-02T03:13:54.306Z,0.30
2022-10-02T03:16:41.437Z,0.30
2022-10-02T03:19:11.002Z,0.30
2022-10-02T03:21:46.441Z,0.33
2022-10-02T03:24:23.980Z,0.40
2022-10-02T03:26:54.618Z,0.30
2022-10-02T03:29:26.414Z,0.23
2022-10-02T03:31:54.003Z,0.30
2022-10-02T03:34:21.038Z,0.27
2022-10-02T03:36:47.695Z,0.20
2022-10-02T03:39:24.713Z,0.20
2022-10-02T03:41:51.684Z,0.30
2022-10-02T03:44:18.213Z,0.13
2022-10-02T03:46:45.152Z,0.23
2022-10-02T03:49:11.719Z,0.40
2022-10-02T03:51:38.286Z,0.30
2022-10-02T03:54:12.567Z,0.20
2022-10-02T03:56:44.506Z,0.30
2022-10-02T03:59:15.919Z,0.20
2022-10-02T04:01:49.409Z,0.30
2022-10-02T04:04:25.054Z,0.20
2022-10-02T04:06:54.777Z,0.37
2022-10-02T04:09:29.019Z,0.30
2022-10-02T04:12:00.010Z,0.30
2022-10-02T04:14:35.251Z,0.30
2022-10-02T04:17:34.310Z,0.30
2022-10-02T04:20:07.321Z,0.20
2022-10-02T04:22:37.460Z,0.40
2022-10-02T04:25:13.143Z,0.30
2022-10-02T04:28:21.401Z,0.20
2022-10-02T04:30:48.106Z,0.33
2022-10-02T04:33:24.865Z,0.30
2022-10-02T04:36:15.964Z,0.30
2022-10-02T04:39:17.702Z,0.30
2022-10-02T04:42:09.336Z,0.73
2022-10-02T04:44:56.354Z,0.50
2022-10-02T04:47:37.862Z,0.37
2022-10-02T04:50:21.281Z,0.50
2022-10-02T04:53:29.086Z,0.40
2022-10-02T04:56:14.570Z,0.40
2022-10-02T04:59:08.495Z,0.40
2022-10-02T05:02:15.140Z,0.30
2022-10-02T05:04:56.726Z,0.40
2022-10-02T05:08:01.011Z,0.43
2022-10-02T05:10:50.784Z,0.40
2022-10-02T05:13:32.494Z,0.40
2022-10-02T05:16:12.532Z,0.60
2022-10-02T05:19:18.994Z,0.40
2022-10-02T05:21:56.254Z,0.50
2022-10-02T05:24:54.830Z,0.40
2022-10-02T05:27:39.779Z,0.60
2022-10-02T05:30:07.706Z,0.60
2022-10-02T05:33:07.299Z,0.60
2022-10-02T05:36:01.293Z,0.60
2022-10-02T05:38:43.124Z,1.10
2022-10-02T05:41:22.609Z,0.80
2022-10-02T05:43:55.578Z,0.80
2022-10-02T05:46:26.378Z,0.80
2022-10-02T05:48:57.582Z,1.10
2022-10-02T05:51:53.654Z,0.80
2022-10-02T05:54:29.078Z,0.80
2022-10-02T05:57:13.770Z,0.70
2022-10-02T05:59:48.158Z,0.90
2022-10-02T06:02:39.325Z,0.90
2022-10-02T06:05:22.875Z,0.80
2022-10-02T06:07:54.427Z,0.90
2022-10-02T06:10:30.975Z,0.90
2022-10-02T06:13:04.920Z,0.80
2022-10-02T06:15:44.168Z,0.80
2022-10-02T06:18:15.829Z,0.93
2022-10-02T06:20:54.343Z,0.90
2022-10-02T06:23:24.898Z,1.07
2022-10-02T06:26:00.348Z,0.97
2022-10-02T06:28:36.386Z,0.83
2022-10-02T06:31:22.834Z,1.10
2022-10-02T06:33:52.120Z,0.73
2022-10-02T06:36:48.098Z,0.73
2022-10-02T06:39:26.793Z,0.90
2022-10-02T06:42:11.766Z,0.80
2022-10-02T06:45:08.858Z,0.70
2022-10-02T06:47:44.315Z,0.83
2022-10-02T06:50:27.866Z,0.90
2022-10-02T06:53:25.581Z,0.70
2022-10-02T06:55:59.556Z,0.70
2022-10-02T06:58:39.710Z,0.80
2022-10-02T07:01:23.158Z,0.80
2022-10-02T07:04:02.273Z,0.80
2022-10-02T07:06:39.539Z,0.80
2022-10-02T07:09:44.072Z,0.67
2022-10-02T07:12:32.324Z,0.60
2022-10-02T07:15:32.539Z,0.80
2022-10-02T07:18:05.005Z,0.80
2022-10-02T07:20:40.472Z,0.80
2022-10-02T07:23:16.323Z,0.83
2022-10-02T07:25:59.029Z,1.77
2022-10-02T07:28:43.330Z,1.07
2022-10-02T07:31:26.139Z,0.73
2022-10-02T07:34:13.465Z,0.67
2022-10-02T07:36:46.293Z,0.90
2022-10-02T07:39:39.870Z,0.60
2022-10-02T07:42:31.986Z,0.60
2022-10-02T07:45:08.322Z,0.70
2022-10-02T07:48:04.034Z,0.50
2022-10-02T07:50:58.610Z,0.70
2022-10-02T07:53:31.048Z,0.80
2022-10-02T07:55:58.562Z,0.60
2022-10-02T07:58:38.422Z,0.43
2022-10-02T08:01:12.627Z,0.60
2022-10-02T08:04:04.306Z,0.60
2022-10-02T08:06:32.330Z,0.80
2022-10-02T08:09:02.596Z,0.50
2022-10-02T08:11:33.286Z,0.57
2022-10-02T08:14:03.554Z,0.70
2022-10-02T08:16:36.757Z,0.70
2022-10-02T08:19:12.174Z,0.70
2022-10-02T08:21:46.419Z,1.00
2022-10-02T08:24:26.466Z,0.67
2022-10-02T08:26:57.989Z,1.23
2022-10-02T08:29:26.672Z,0.60
2022-10-02T08:31:53.516Z,0.60
2022-10-02T08:34:24.754Z,1.10
2022-10-02T08:37:09.745Z,0.53
2022-10-02T08:39:54.499Z,0.70
2022-10-02T08:42:33.137Z,0.60
2022-10-02T08:45:26.655Z,0.60
2022-10-02T08:48:08.443Z,0.60
2022-10-02T08:50:53.891Z,1.60
2022-10-02T08:53:58.042Z,0.80
2022-10-02T08:56:32.222Z,0.70
2022-10-02T08:59:26.002Z,0.60
2022-10-02T09:02:01.868Z,0.70
2022-10-02T09:04:38.221Z,0.63
2022-10-02T09:07:42.436Z,0.60
2022-10-02T09:10:27.076Z,0.70
2022-10-02T09:12:58.456Z,0.50
2022-10-02T09:15:36.960Z,0.60
2022-10-02T09:18:15.882Z,0.60
2022-10-02T09:21:12.816Z,0.90
2022-10-02T09:23:58.258Z,0.70
2022-10-02T09:26:52.750Z,1.30
2022-10-02T09:29:28.719Z,0.90
2022-10-02T09:32:22.968Z,0.70
2022-10-02T09:35:06.946Z,1.00
2022-10-02T09:37:53.600Z,0.63
2022-10-02T09:40:55.810Z,0.57
2022-10-02T09:43:48.964Z,0.50
2022-10-02T09:46:43.143Z,0.60
2022-10-02T09:49:56.302Z,0.50
2022-10-02T09:52:45.524Z,0.67
2022-10-02T09:55:43.502Z,0.80
2022-10-02T09:58:36.102Z,0.90
2022-10-02T10:01:24.632Z,0.73
2022-10-02T10:04:17.447Z,0.53
2022-10-02T10:07:05.694Z,0.70
2022-10-02T10:10:06.364Z,0.40
2022-10-02T10:12:57.981Z,0.60
2022-10-02T10:15:57.502Z,0.63
2022-10-02T10:18:36.487Z,0.50
2022-10-02T10:21:38.317Z,0.50
2022-10-02T10:24:19.911Z,0.40
2022-10-02T10:27:30.253Z,0.50
2022-10-02T10:30:06.127Z,0.80
2022-10-02T10:32:44.951Z,0.77
2022-10-02T10:35:22.398Z,0.60
2022-10-02T10:38:14.908Z,0.60
2022-10-02T10:40:58.323Z,0.60
2022-10-02T10:44:02.047Z,0.83
2022-10-02T10:47:00.686Z,0.67
2022-10-02T10:49:45.881Z,0.40
2022-10-02T10:52:31.094Z,0.63
2022-10-02T10:55:16.534Z,0.50
2022-10-02T10:58:14.970Z,0.70
2022-10-02T11:00:41.792Z,0.50
2022-10-02T11:03:30.704Z,0.50
2022-10-02T11:06:27.200Z,0.60
2022-10-02T11:09:26.898Z,0.50
2022-10-02T11:12:12.664Z,0.80
2022-10-02T11:15:07.316Z,0.50
2022-10-02T11:17:43.042Z,0.60
2022-10-02T11:20:24.154Z,0.57
2022-10-02T11:23:11.049Z,0.50
2022-10-02T11:25:56.882Z,0.60
2022-10-02T11:28:28.651Z,0.50
2022-10-02T11:31:10.451Z,0.50
2022-10-02T11:34:12.974Z,0.50
2022-10-02T11:36:56.092Z,0.50
2022-10-02T11:39:50.538Z,0.60
2022-10-02T11:42:38.514Z,0.43
2022-10-02T11:45:37.257Z,0.50
2022-10-02T11:48:14.925Z,0.50
2022-10-02T11:50:47.705Z,0.77
2022-10-02T11:53:49.658Z,0.63
2022-10-02T11:57:01.682Z,0.50
2022-10-02T11:59:49.414Z,0.70
2022-10-02T12:02:39.023Z,0.67
2022-10-02T12:05:54.762Z,0.90
2022-10-02T12:08:44.512Z,0.50
2022-10-02T12:11:27.042Z,0.67
2022-10-02T12:14:03.075Z,0.70
2022-10-02T12:16:35.811Z,0.67
2022-10-02T12:19:33.522Z,0.90
2022-10-02T12:22:34.529Z,0.60
2022-10-02T12:25:45.126Z,0.50
2022-10-02T12:28:28.724Z,0.70
2022-10-02T12:30:55.386Z,0.70
2022-10-02T12:33:29.933Z,0.60
2022-10-02T12:36:34.079Z,0.50
2022-10-02T12:39:24.255Z,0.50
2022-10-02T12:42:28.950Z,0.47
2022-10-02T12:45:10.720Z,0.40
2022-10-02T12:48:08.143Z,0.60
2022-10-02T12:50:47.701Z,0.40
2022-10-02T12:53:49.865Z,0.50
2022-10-02T12:56:47.244Z,0.50
2022-10-02T12:59:27.849Z,0.50
2022-10-02T13:02:19.091Z,0.87
2022-10-02T13:04:45.806Z,0.60
2022-10-02T13:07:33.975Z,0.70
2022-10-02T13:10:29.332Z,0.60
2022-10-02T13:13:36.142Z,0.73
2022-10-02T13:16:15.024Z,0.57
2022-10-02T13:18:58.131Z,0.60
2022-10-02T13:21:47.467Z,0.73
2022-10-02T13:24:26.017Z,0.67
2022-10-02T13:27:18.755Z,1.37
2022-10-02T13:30:10.200Z,0.80
2022-10-02T13:32:55.548Z,0.60
2022-10-02T13:35:35.498Z,0.60
2022-10-02T13:38:44.176Z,0.63
2022-10-02T13:41:29.962Z,0.77
2022-10-02T13:44:05.874Z,0.97
2022-10-02T13:46:41.590Z,1.10
2022-10-02T13:49:26.179Z,0.60
2022-10-02T13:52:02.223Z,0.50
2022-10-02T13:54:51.367Z,0.50
2022-10-02T13:58:01.166Z,0.60
2022-10-02T14:00:37.348Z,0.77
2022-10-02T14:03:21.906Z,0.50
2022-10-02T14:06:02.117Z,0.53
2022-10-02T14:09:05.047Z,0.60
2022-10-02T14:12:09.266Z,0.43
2022-10-02T14:15:00.509Z,0.77
2022-10-02T14:17:43.102Z,0.70
2022-10-02T14:20:43.560Z,0.60
2022-10-02T14:23:16.195Z,0.40
2022-10-02T14:25:54.974Z,0.60
2022-10-02T14:28:21.677Z,0.60
2022-10-02T14:31:16.546Z,0.50
2022-10-02T14:33:52.405Z,0.80
2022-10-02T14:36:41.631Z,0.90
2022-10-02T14:39:26.710Z,1.00
2022-10-02T14:42:14.036Z,0.87
2022-10-02T14:45:37.823Z,0.70
2022-10-02T14:48:37.050Z,0.67
2022-10-02T14:51:06.597Z,0.60
2022-10-02T14:53:40.489Z,0.70
2022-10-02T14:56:38.017Z,0.80
2022-10-02T14:59:10.700Z,0.70
2022-10-02T15:01:46.867Z,1.00
2022-10-02T15:04:23.363Z,0.87
2022-10-02T15:06:53.174Z,1.10
2022-10-02T15:09:30.083Z,1.30
2022-10-02T15:11:56.700Z,1.30
2022-10-02T15:15:00.853Z,1.20
2022-10-02T15:17:55.621Z,0.90
2022-10-02T15:20:26.504Z,1.30
2022-10-02T15:22:59.655Z,1.00
2022-10-02T15:25:44.411Z,1.00
2022-10-02T15:28:35.966Z,1.33
2022-10-02T15:31:12.508Z,1.50
2022-10-02T15:33:47.030Z,1.00
2022-10-02T15:36:21.057Z,1.43
2022-10-02T15:39:05.110Z,1.20
2022-10-02T15:41:42.344Z,1.20
2022-10-02T15:44:34.501Z,1.20
2022-10-02T15:47:15.748Z,1.30
2022-10-02T15:50:02.909Z,2.37
2022-10-02T15:52:51.333Z,1.57
2022-10-02T15:55:28.485Z,1.60
2022-10-02T15:58:20.121Z,1.60
2022-10-02T16:01:02.449Z,1.67
2022-10-02T16:03:45.635Z,1.53
2022-10-02T16:06:40.545Z,1.90
2022-10-02T16:09:20.475Z,2.80
2022-10-02T16:11:58.433Z,2.97
2022-10-02T16:14:52.470Z,3.93
2022-10-02T16:17:42.232Z,2.70
2022-10-02T16:20:37.883Z,1.60
2022-10-02T16:23:17.216Z,1.47
2022-10-02T16:25:52.469Z,1.33
2022-10-02T16:28:26.059Z,1.43
2022-10-02T16:30:56.181Z,1.33
2022-10-02T16:33:44.194Z,1.47
2022-10-02T16:36:29.972Z,1.10
2022-10-02T16:39:22.655Z,1.60
2022-10-02T16:42:20.178Z,2.10
2022-10-02T16:45:03.082Z,2.13
2022-10-02T16:47:43.032Z,1.23
2022-10-02T16:50:12.345Z,1.30
2022-10-02T16:52:41.869Z,1.40
2022-10-02T16:55:13.581Z,1.30
2022-10-02T16:57:43.225Z,1.40
2022-10-02T17:00:28.350Z,1.40
2022-10-02T17:03:39.808Z,1.50
2022-10-02T17:06:21.761Z,1.67
2022-10-02T17:09:17.926Z,1.90
2022-10-02T17:12:03.392Z,1.87
2022-10-02T17:14:46.711Z,1.70
2022-10-02T17:17:50.924Z,1.80
2022-10-02T17:20:27.413Z,1.50
2022-10-02T17:23:27.240Z,2.10
2022-10-02T17:25:59.587Z,1.40
2022-10-02T17:28:36.931Z,1.60
2022-10-02T17:31:04.281Z,1.70
2022-10-02T17:33:47.949Z,1.63
2022-10-02T17:36:23.994Z,2.10
2022-10-02T17:39:05.808Z,2.50
2022-10-02T17:41:49.137Z,2.67
2022-10-02T17:44:44.986Z,3.30
2022-10-02T17:47:48.541Z,2.53
2022-10-02T17:50:34.958Z,1.10
2022-10-02T17:53:39.831Z,1.27
2022-10-02T17:56:28.054Z,1.40
2022-10-02T17:59:17.132Z,0.93
2022-10-02T18:02:14.834Z,0.83
2022-10-02T18:04:49.024Z,0.80
2022-10-02T18:07:28.072Z,0.93
2022-10-02T18:10:15.166Z,0.80
2022-10-02T18:13:22.482Z,1.00
2022-10-02T18:15:52.020Z,1.03
2022-10-02T18:18:18.498Z,0.70
2022-10-02T18:21:00.671Z,0.88
2022-10-02T18:23:52.168Z,0.80
2022-10-02T18:26:43.747Z,0.60
2022-10-02T18:29:39.654Z,0.60
2022-10-02T18:32:44.645Z,0.60
2022-10-02T18:35:30.980Z,0.50
2022-10-02T18:38:29.666Z,0.50
2022-10-02T18:41:08.529Z,0.50
2022-10-02T18:43:49.890Z,0.40
2022-10-02T18:46:19.053Z,0.43
2022-10-02T18:48:58.898Z,0.60
2022-10-02T18:51:54.206Z,0.70
2022-10-02T18:54:41.454Z,0.50
2022-10-02T18:57:08.010Z,0.47
2022-10-02T18:59:56.946Z,0.40
2022-10-02T19:02:54.311Z,0.40
2022-10-02T19:05:30.811Z,0.40
2022-10-02T19:08:03.675Z,0.40
2022-10-02T19:10:33.282Z,0.30
2022-10-02T19:13:21.856Z,0.40
2022-10-02T19:15:50.990Z,0.40
2022-10-02T19:18:22.081Z,0.50
2022-10-02T19:20:57.866Z,0.43
2022-10-02T19:23:40.781Z,0.33
2022-10-02T19:26:17.152Z,0.50
2022-10-02T19:28:49.451Z,0.50
2022-10-02T19:31:22.724Z,0.47
2022-10-02T19:34:13.948Z,0.63
2022-10-02T19:36:45.090Z,0.60
2022-10-02T19:39:33.282Z,0.50
2022-10-02T19:42:08.022Z,0.43
2022-10-02T19:44:40.842Z,0.40
2022-10-02T19:47:29.351Z,0.50
2022-10-02T19:49:58.308Z,0.40
2022-10-02T19:52:42.087Z,0.70
2022-10-02T19:55:32.418Z,0.40
2022-10-02T19:58:06.368Z,0.30
2022-10-02T20:00:38.231Z,0.40
2022-10-02T20:03:08.966Z,0.40
2022-10-02T20:05:36.370Z,0.40
2022-10-02T20:08:11.337Z,0.50
2022-10-02T20:10:58.200Z,0.37
2022-10-02T20:13:32.475Z,0.30
2022-10-02T20:16:24.951Z,0.47
2022-10-02T20:18:51.842Z,0.50
2022-10-02T20:21:27.508Z,0.30
2022-10-02T20:23:57.359Z,0.30
2022-10-02T20:26:27.722Z,0.30
2022-10-02T20:29:04.494Z,0.30
2022-10-02T20:31:38.360Z,0.20
2022-10-02T20:34:27.318Z,0.20
2022-10-02T20:37:08.876Z,0.20
2022-10-02T20:39:38.706Z,0.23
2022-10-02T20:42:13.483Z,0.10
2022-10-02T20:44:40.699Z,0.10
2022-10-02T20:47:22.287Z,0.10
2022-10-02T20:50:00.910Z,0.20
2022-10-02T20:52:27.470Z,0.10
2022-10-02T20:55:30.285Z,0.10
2022-10-02T20:58:10.835Z,0.10
2022-10-02T21:01:14.901Z,0.10
2022-10-02T21:04:00.121Z,0.10
2022-10-02T21:06:48.314Z,0.20
2022-10-02T21:09:48.573Z,0.20
2022-10-02T21:12:23.894Z,0.10
2022-10-02T21:15:15.262Z,0.10
2022-10-02T21:18:09.310Z,0.13
2022-10-02T21:20:50.145Z,0.17
2022-10-02T21:23:54.226Z,0.10
2022-10-02T21:26:32.978Z,0.20
2022-10-02T21:28:59.885Z,0.10
2022-10-02T21:31:42.378Z,0.20
2022-10-02T21:34:31.083Z,0.10
2022-10-02T21:37:01.598Z,0.10
2022-10-02T21:39:52.805Z,0.17
2022-10-02T21:42:57.602Z,0.20
2022-10-02T21:45:57.581Z,0.10
2022-10-02T21:48:34.698Z,0.20
2022-10-02T21:51:26.753Z,0.10
2022-10-02T21:54:18.962Z,0.13
2022-10-02T21:57:13.514Z,0.20
2022-10-02T22:00:07.853Z,0.20
2022-10-02T22:02:53.240Z,0.13
2022-10-02T22:05:32.302Z,0.20
2022-10-02T22:08:29.374Z,0.20
2022-10-02T22:11:01.539Z,0.20
2022-10-02T22:13:38.946Z,0.20
2022-10-02T22:16:21.978Z,0.20
2022-10-02T22:18:55.842Z,0.30
2022-10-02T22:21:53.298Z,0.40
2022-10-02T22:24:33.352Z,0.33
2022-10-02T22:26:59.860Z,0.30
2022-10-02T22:29:29.023Z,0.40
2022-10-02T22:32:39.468Z,0.33
2022-10-02T22:35:21.030Z,0.40
2022-10-02T22:38:09.927Z,0.40
2022-10-02T22:40:47.491Z,0.37
2022-10-02T22:43:24.442Z,0.40
2022-10-02T22:45:57.143Z,0.40
2022-10-02T22:48:29.391Z,0.40
2022-10-02T22:51:03.200Z,0.40
2022-10-02T22:53:34.630Z,0.40
2022-10-02T22:56:01.337Z,0.50
2022-10-02T22:58:40.034Z,0.43
2022-10-02T23:01:37.801Z,0.40
2022-10-02T23:04:20.622Z,0.40
2022-10-02T23:07:11.064Z,0.50
2022-10-02T23:09:57.876Z,0.47
2022-10-02T23:12:38.745Z,0.60
2022-10-02T23:15:20.504Z,0.30
2022-10-02T23:18:01.868Z,0.40
2022-10-02T23:20:50.330Z,0.50
2022-10-02T23:23:23.993Z,0.50
2022-10-02T23:26:02.860Z,0.50
2022-10-02T23:28:45.809Z,0.40
2022-10-02T23:31:32.772Z,0.60
2022-10-02T23:34:19.561Z,0.40
2022-10-02T23:36:51.986Z,0.50
2022-10-02T23:39:25.192Z,0.50
2022-10-02T23:41:54.592Z,0.50
2022-10-02T23:44:32.028Z,0.50
2022-10-02T23:47:08.104Z,0.50
2022-10-02T23:49:39.003Z,0.50
2022-10-02T23:52:32.844Z,0.40
2022-10-02T23:55:17.500Z,0.50
2022-10-02T23:57:53.091Z,0.40
